createdAt,value
2023-05-22T00:00:22.625Z,0.50
2023-05-22T00:01:22.681Z,0.50
2023-05-22T00:02:22.699Z,0.50
2023-05-22T00:03:22.740Z,0.40
2023-05-22T00:04:22.758Z,0.35
2023-05-22T00:05:22.905Z,0.36
2023-05-22T00:06:22.873Z,0.35
2023-05-22T00:07:22.928Z,0.38
2023-05-22T00:08:22.988Z,0.40
2023-05-22T00:09:23.047Z,0.43
2023-05-22T00:10:23.116Z,0.49
2023-05-22T00:11:23.160Z,0.51
2023-05-22T00:12:23.277Z,0.50
2023-05-22T00:13:23.276Z,0.50
2023-05-22T00:14:23.352Z,0.53
2023-05-22T00:15:23.404Z,0.50
2023-05-22T00:16:23.486Z,0.52
2023-05-22T00:17:23.745Z,0.51
2023-05-22T00:18:23.580Z,0.52
2023-05-22T00:19:23.715Z,0.52
2023-05-22T00:20:23.705Z,0.50
2023-05-22T00:21:23.756Z,0.52
2023-05-22T00:22:23.819Z,0.51
2023-05-22T00:23:23.883Z,0.50
2023-05-22T00:24:23.936Z,0.53
2023-05-22T00:25:24.027Z,0.52
2023-05-22T00:26:24.066Z,0.51
2023-05-22T00:27:24.123Z,0.52
2023-05-22T00:28:24.214Z,0.53
2023-05-22T00:29:24.239Z,0.50
2023-05-22T00:30:24.286Z,0.51
2023-05-22T00:31:24.370Z,0.54
2023-05-22T00:32:24.462Z,0.51
2023-05-22T00:33:24.466Z,0.52
2023-05-22T00:34:24.556Z,0.52
2023-05-22T00:35:24.585Z,0.52
2023-05-22T00:36:24.634Z,0.50
2023-05-22T00:37:24.701Z,0.50
2023-05-22T00:38:24.758Z,0.53
2023-05-22T00:39:24.828Z,0.53
2023-05-22T00:40:24.877Z,0.54
2023-05-22T00:41:24.933Z,0.51
2023-05-22T00:42:24.998Z,0.52
2023-05-22T00:43:25.033Z,0.52
2023-05-22T00:44:25.132Z,0.51
2023-05-22T00:45:25.149Z,0.52
2023-05-22T00:46:25.239Z,0.55
2023-05-22T00:47:25.300Z,0.50
2023-05-22T00:48:25.343Z,0.54
2023-05-22T00:49:25.773Z,0.52
2023-05-22T00:50:25.774Z,0.51
2023-05-22T00:51:25.800Z,0.51
2023-05-22T00:52:25.828Z,0.51
2023-05-22T00:53:25.845Z,0.52
2023-05-22T00:54:25.801Z,0.52
2023-05-22T00:55:25.790Z,0.52
2023-05-22T00:56:25.771Z,0.52
2023-05-22T00:57:25.927Z,0.51
2023-05-22T00:58:25.931Z,0.52
2023-05-22T00:59:25.944Z,0.52
2023-05-22T01:00:26.153Z,0.52
2023-05-22T01:01:26.177Z,0.54
2023-05-22T01:02:26.119Z,0.50
2023-05-22T01:03:27.306Z,0.53
2023-05-22T01:04:26.232Z,0.52
2023-05-22T01:05:26.267Z,0.50
2023-05-22T01:06:26.306Z,0.52
2023-05-22T01:07:26.734Z,0.52
2023-05-22T01:08:26.783Z,0.50
2023-05-22T01:09:26.780Z,0.55
2023-05-22T01:10:26.794Z,0.52
2023-05-22T01:11:26.794Z,0.53
2023-05-22T01:12:26.774Z,0.56
2023-05-22T01:13:26.802Z,0.53
2023-05-22T01:14:26.781Z,0.54
2023-05-22T01:15:26.820Z,0.53
2023-05-22T01:16:26.924Z,0.52
2023-05-22T01:17:26.956Z,0.53
2023-05-22T01:18:26.846Z,0.53
2023-05-22T01:19:26.896Z,0.52
2023-05-22T01:20:26.913Z,0.54
2023-05-22T01:21:26.948Z,0.51
2023-05-22T01:22:26.981Z,0.53
2023-05-22T01:23:27.028Z,0.52
2023-05-22T01:24:27.064Z,0.52
2023-05-22T01:25:27.150Z,0.51
2023-05-22T01:26:27.129Z,0.52
2023-05-22T01:27:27.129Z,0.54
2023-05-22T01:28:27.168Z,0.54
2023-05-22T01:29:27.175Z,0.53
2023-05-22T01:30:27.216Z,0.53
2023-05-22T01:31:27.233Z,0.53
2023-05-22T01:32:27.334Z,0.53
2023-05-22T01:33:27.344Z,0.52
2023-05-22T01:34:27.264Z,0.52
2023-05-22T01:35:27.311Z,0.50
2023-05-22T01:36:27.319Z,0.54
2023-05-22T01:37:27.364Z,0.53
2023-05-22T01:38:27.385Z,0.52
2023-05-22T01:39:27.420Z,0.50
2023-05-22T01:40:27.452Z,0.51
2023-05-22T01:41:27.492Z,0.54
2023-05-22T01:42:27.527Z,0.54
2023-05-22T01:43:27.556Z,0.53
2023-05-22T01:44:27.582Z,0.52
2023-05-22T01:45:27.625Z,0.52
2023-05-22T01:46:27.666Z,0.50
2023-05-22T01:47:27.726Z,0.53
2023-05-22T01:48:27.752Z,0.53
2023-05-22T01:49:27.765Z,0.53
2023-05-22T01:50:27.807Z,0.51
2023-05-22T01:51:27.824Z,0.53
2023-05-22T01:52:27.880Z,0.52
2023-05-22T01:53:27.921Z,0.52
2023-05-22T01:54:27.973Z,0.54
2023-05-22T01:55:27.996Z,0.51
2023-05-22T01:56:28.023Z,0.50
2023-05-22T01:57:28.038Z,0.53
2023-05-22T01:58:28.091Z,0.56
2023-05-22T01:59:28.086Z,0.51
2023-05-22T02:00:28.107Z,0.53
2023-05-22T02:01:28.209Z,0.52
2023-05-22T02:02:28.315Z,0.54
2023-05-22T02:03:28.298Z,0.53
2023-05-22T02:04:28.307Z,0.53
2023-05-22T02:05:28.301Z,0.54
2023-05-22T02:06:28.335Z,0.52
2023-05-22T02:07:28.361Z,0.52
2023-05-22T02:08:28.370Z,0.51
2023-05-22T02:09:28.410Z,0.53
2023-05-22T02:10:28.480Z,0.51
2023-05-22T02:11:28.473Z,0.54
2023-05-22T02:12:28.480Z,0.53
2023-05-22T02:13:28.483Z,0.53
2023-05-22T02:14:28.512Z,0.52
2023-05-22T02:15:28.587Z,0.53
2023-05-22T02:16:28.587Z,0.53
2023-05-22T02:17:28.685Z,0.52
2023-05-22T02:18:28.639Z,0.54
2023-05-22T02:19:28.677Z,0.53
2023-05-22T02:20:28.717Z,0.52
2023-05-22T02:21:28.736Z,0.53
2023-05-22T02:22:28.763Z,0.52
2023-05-22T02:23:28.793Z,0.52
2023-05-22T02:24:28.803Z,0.55
2023-05-22T02:25:28.810Z,0.53
2023-05-22T02:26:28.854Z,0.51
2023-05-22T02:27:28.885Z,0.52
2023-05-22T02:28:28.897Z,0.54
2023-05-22T02:29:28.897Z,0.52
2023-05-22T02:30:28.921Z,0.53
2023-05-22T02:31:28.962Z,0.51
2023-05-22T02:32:28.962Z,0.53
2023-05-22T02:33:28.935Z,0.52
2023-05-22T02:34:28.938Z,0.52
2023-05-22T02:35:28.937Z,0.52
2023-05-22T02:36:28.951Z,0.55
2023-05-22T02:37:28.929Z,0.52
2023-05-22T02:38:28.930Z,0.54
2023-05-22T02:39:28.930Z,0.52
2023-05-22T02:40:28.925Z,0.52
2023-05-22T02:41:28.962Z,0.54
2023-05-22T02:42:28.967Z,0.51
2023-05-22T02:43:28.976Z,0.53
2023-05-22T02:44:28.981Z,0.53
2023-05-22T02:45:28.989Z,0.51
2023-05-22T02:46:29.004Z,0.52
2023-05-22T02:47:28.999Z,0.53
2023-05-22T02:48:28.970Z,0.50
2023-05-22T02:49:28.965Z,0.50
2023-05-22T02:50:28.958Z,0.53
2023-05-22T02:51:28.949Z,0.54
2023-05-22T02:52:28.996Z,0.51
2023-05-22T02:53:28.944Z,0.51
2023-05-22T02:54:28.952Z,0.53
2023-05-22T02:55:28.958Z,0.54
2023-05-22T02:56:28.959Z,0.53
2023-05-22T02:57:28.959Z,0.53
2023-05-22T02:58:28.958Z,0.50
2023-05-22T02:59:28.943Z,0.53
2023-05-22T03:00:28.943Z,0.53
2023-05-22T03:01:29.005Z,0.51
2023-05-22T03:02:28.992Z,0.54
2023-05-22T03:03:28.988Z,0.55
2023-05-22T03:04:28.938Z,0.50
2023-05-22T03:05:28.937Z,0.54
2023-05-22T03:06:28.950Z,0.55
2023-05-22T03:07:28.942Z,0.55
2023-05-22T03:08:28.968Z,0.55
2023-05-22T03:09:28.957Z,0.51
2023-05-22T03:10:29.434Z,0.52
2023-05-22T03:11:28.942Z,0.53
2023-05-22T03:12:28.964Z,0.52
2023-05-22T03:13:28.962Z,0.53
2023-05-22T03:14:28.968Z,0.53
2023-05-22T03:15:28.970Z,0.53
2023-05-22T03:16:29.012Z,0.53
2023-05-22T03:17:28.981Z,0.53
2023-05-22T03:18:28.981Z,0.54
2023-05-22T03:19:29.013Z,0.53
2023-05-22T03:20:28.988Z,0.53
2023-05-22T03:21:28.971Z,0.53
2023-05-22T03:22:28.993Z,0.53
2023-05-22T03:23:28.962Z,0.51
2023-05-22T03:24:28.991Z,0.53
2023-05-22T03:25:29.013Z,0.54
2023-05-22T03:26:28.966Z,0.54
2023-05-22T03:27:28.945Z,0.53
2023-05-22T03:28:28.970Z,0.53
2023-05-22T03:29:28.943Z,0.53
2023-05-22T03:30:28.947Z,0.52
2023-05-22T03:31:28.941Z,0.53
2023-05-22T03:32:28.973Z,0.54
2023-05-22T03:33:28.974Z,0.53
2023-05-22T03:34:28.941Z,0.53
2023-05-22T03:35:29.446Z,0.53
2023-05-22T03:36:30.446Z,0.54
2023-05-22T03:37:28.942Z,0.56
2023-05-22T03:38:28.956Z,0.53
2023-05-22T03:39:28.970Z,0.55
2023-05-22T03:40:28.958Z,0.53
2023-05-22T03:41:28.917Z,0.55
2023-05-22T03:42:28.902Z,0.52
2023-05-22T03:43:28.898Z,0.52
2023-05-22T03:44:28.888Z,0.53
2023-05-22T03:45:28.897Z,0.53
2023-05-22T03:46:28.900Z,0.54
2023-05-22T03:47:28.922Z,0.53
2023-05-22T03:48:28.870Z,0.53
2023-05-22T03:49:28.866Z,0.53
2023-05-22T03:50:28.848Z,0.54
2023-05-22T03:51:28.859Z,0.52
2023-05-22T03:52:28.836Z,0.54
2023-05-22T03:53:28.834Z,0.53
2023-05-22T03:54:28.830Z,0.53
2023-05-22T03:55:28.819Z,0.54
2023-05-22T03:56:28.842Z,0.54
2023-05-22T03:57:28.803Z,0.53
2023-05-22T03:58:28.802Z,0.53
2023-05-22T03:59:28.820Z,0.53
2023-05-22T04:00:28.801Z,0.54
2023-05-22T04:01:28.784Z,0.52
2023-05-22T04:02:28.814Z,0.54
2023-05-22T04:03:28.980Z,0.54
2023-05-22T04:04:28.759Z,0.53
2023-05-22T04:05:28.884Z,0.53
2023-05-22T04:06:28.740Z,0.54
2023-05-22T04:07:28.737Z,0.53
2023-05-22T04:08:28.727Z,0.54
2023-05-22T04:09:28.723Z,0.55
2023-05-22T04:10:28.723Z,0.53
2023-05-22T04:11:28.703Z,0.54
2023-05-22T04:12:28.726Z,0.54
2023-05-22T04:13:28.700Z,0.52
2023-05-22T04:14:28.683Z,0.52
2023-05-22T04:15:28.687Z,0.52
2023-05-22T04:16:28.779Z,0.53
2023-05-22T04:17:29.004Z,0.51
2023-05-22T04:18:28.666Z,0.53
2023-05-22T04:19:28.679Z,0.51
2023-05-22T04:20:28.638Z,0.53
2023-05-22T04:21:28.628Z,0.53
2023-05-22T04:22:28.619Z,0.51
2023-05-22T04:23:28.628Z,0.53
2023-05-22T04:24:28.605Z,0.51
2023-05-22T04:25:28.606Z,0.52
2023-05-22T04:26:28.587Z,0.52
2023-05-22T04:27:28.584Z,0.52
2023-05-22T04:28:28.598Z,0.51
2023-05-22T04:29:28.601Z,0.53
2023-05-22T04:30:28.556Z,0.52
2023-05-22T04:31:28.611Z,0.54
2023-05-22T04:32:28.571Z,0.53
2023-05-22T04:33:28.538Z,0.53
2023-05-22T04:34:28.524Z,0.54
2023-05-22T04:35:28.515Z,0.54
2023-05-22T04:36:28.530Z,0.54
2023-05-22T04:37:28.508Z,0.53
2023-05-22T04:38:28.501Z,0.53
2023-05-22T04:39:28.495Z,0.54
2023-05-22T04:40:28.480Z,0.53
2023-05-22T04:41:28.471Z,0.52
2023-05-22T04:42:28.502Z,0.54
2023-05-22T04:43:28.458Z,0.53
2023-05-22T04:44:28.479Z,0.53
2023-05-22T04:45:28.452Z,0.53
2023-05-22T04:46:28.477Z,0.52
2023-05-22T04:47:28.441Z,0.54
2023-05-22T04:48:28.438Z,0.53
2023-05-22T04:49:28.424Z,0.54
2023-05-22T04:50:28.412Z,0.55
2023-05-22T04:51:28.423Z,0.53
2023-05-22T04:52:28.416Z,0.53
2023-05-22T04:53:28.400Z,0.53
2023-05-22T04:54:28.383Z,0.54
2023-05-22T04:55:28.389Z,0.55
2023-05-22T04:56:36.328Z,0.53
2023-05-22T04:57:28.363Z,0.53
2023-05-22T04:58:28.358Z,0.54
2023-05-22T04:59:28.375Z,0.54
2023-05-22T05:00:28.369Z,0.54
2023-05-22T05:01:29.946Z,0.55
2023-05-22T05:02:28.374Z,0.53
2023-05-22T05:03:28.377Z,0.53
2023-05-22T05:04:28.313Z,0.54
2023-05-22T05:05:28.307Z,0.54
2023-05-22T05:06:28.300Z,0.53
2023-05-22T05:07:28.363Z,0.55
2023-05-22T05:08:28.375Z,0.54
2023-05-22T05:09:28.271Z,0.53
2023-05-22T05:10:28.270Z,0.54
2023-05-22T05:11:28.258Z,0.54
2023-05-22T05:12:28.248Z,0.53
2023-05-22T05:13:28.243Z,0.54
2023-05-22T05:14:28.478Z,0.56
2023-05-22T05:15:28.334Z,0.54
2023-05-22T05:16:28.310Z,0.53
2023-05-22T05:17:28.338Z,0.53
2023-05-22T05:18:28.310Z,0.52
2023-05-22T05:19:28.789Z,0.52
2023-05-22T05:20:28.271Z,0.53
2023-05-22T05:21:28.301Z,0.55
2023-05-22T05:22:28.246Z,0.53
2023-05-22T05:23:28.185Z,0.55
2023-05-22T05:24:28.169Z,0.55
2023-05-22T05:25:28.182Z,0.56
2023-05-22T05:26:28.146Z,0.56
2023-05-22T05:27:28.297Z,0.57
2023-05-22T05:28:28.140Z,0.56
2023-05-22T05:29:28.125Z,0.57
2023-05-22T05:30:28.113Z,0.55
2023-05-22T05:31:28.490Z,0.57
2023-05-22T05:32:28.174Z,0.57
2023-05-22T05:33:28.107Z,0.57
2023-05-22T05:34:28.095Z,0.58
2023-05-22T05:35:28.095Z,0.58
2023-05-22T05:36:28.076Z,0.58
2023-05-22T05:37:28.130Z,0.59
2023-05-22T05:38:28.065Z,0.58
2023-05-22T05:39:28.543Z,0.57
2023-05-22T05:40:28.054Z,0.59
2023-05-22T05:41:28.037Z,0.62
2023-05-22T05:42:28.048Z,0.60
2023-05-22T05:43:28.075Z,0.59
2023-05-22T05:44:28.565Z,0.63
2023-05-22T05:45:28.034Z,0.59
2023-05-22T05:46:28.054Z,0.66
2023-05-22T05:47:28.680Z,0.61
2023-05-22T05:48:28.144Z,0.65
2023-05-22T05:49:28.600Z,0.62
2023-05-22T05:50:28.240Z,0.65
2023-05-22T05:51:28.285Z,0.69
2023-05-22T05:52:28.612Z,0.66
2023-05-22T05:53:28.404Z,0.70
2023-05-22T05:54:28.550Z,0.68
2023-05-22T05:55:36.004Z,0.66
2023-05-22T05:56:28.997Z,0.67
2023-05-22T05:57:31.751Z,0.68
2023-05-22T05:58:28.522Z,0.67
2023-05-22T05:59:28.502Z,0.69
2023-05-22T06:00:35.954Z,0.72
2023-05-22T06:01:29.525Z,0.67
2023-05-22T06:02:31.755Z,0.67
2023-05-22T06:05:46.368Z,0.50
2023-05-22T06:07:50.254Z,0.50
2023-05-22T06:09:50.242Z,0.50
2023-05-22T06:10:47.057Z,0.50
2023-05-22T06:11:54.453Z,0.50
2023-05-22T06:12:50.230Z,0.50
2023-05-22T06:13:47.029Z,0.50
2023-05-22T06:15:02.868Z,0.50
2023-05-22T06:15:54.671Z,0.50
2023-05-22T06:16:54.541Z,0.50
2023-05-22T06:17:47.108Z,0.50
2023-05-22T06:18:49.064Z,0.50
2023-05-22T06:19:47.257Z,0.50
2023-05-22T06:20:47.058Z,0.50
2023-05-22T06:21:49.827Z,0.50
2023-05-22T06:22:46.960Z,0.50
2023-05-22T06:23:46.980Z,0.50
2023-05-22T06:24:47.010Z,0.50
2023-05-22T06:25:47.016Z,0.50
2023-05-22T06:26:47.274Z,0.50
2023-05-22T06:27:48.069Z,0.51
2023-05-22T06:28:47.107Z,0.53
2023-05-22T06:29:47.117Z,0.54
2023-05-22T06:30:47.335Z,0.53
2023-05-22T06:31:47.211Z,0.57
2023-05-22T06:32:50.568Z,0.58
2023-05-22T06:33:47.268Z,0.58
2023-05-22T06:34:47.170Z,0.58
2023-05-22T06:35:47.226Z,0.59
2023-05-22T06:36:47.387Z,0.61
2023-05-22T06:37:47.180Z,0.64
2023-05-22T06:38:47.147Z,0.66
2023-05-22T06:39:50.334Z,0.67
2023-05-22T06:40:47.476Z,0.67
2023-05-22T06:41:47.147Z,0.68
2023-05-22T06:42:47.120Z,0.69
2023-05-22T06:43:47.281Z,0.70
2023-05-22T06:44:50.299Z,0.73
2023-05-22T06:45:47.112Z,0.67
2023-05-22T06:46:47.082Z,0.68
2023-05-22T06:47:47.352Z,0.71
2023-05-22T06:48:47.065Z,0.75
2023-05-22T06:49:54.452Z,0.82
2023-05-22T06:50:47.054Z,0.67
2023-05-22T06:51:47.048Z,0.70
2023-05-22T06:52:47.281Z,0.74
2023-05-22T06:53:47.051Z,0.80
2023-05-22T06:54:47.006Z,0.92
2023-05-22T06:55:47.071Z,0.90
2023-05-22T06:56:47.001Z,0.94
2023-05-22T06:57:47.262Z,0.94
2023-05-22T06:58:46.996Z,0.96
2023-05-22T06:59:47.395Z,0.99
2023-05-22T07:00:47.312Z,0.99
2023-05-22T07:01:54.373Z,0.99
2023-05-22T07:02:47.399Z,1.00
2023-05-22T07:03:47.008Z,1.00
2023-05-22T07:04:47.026Z,1.01
2023-05-22T07:05:47.984Z,1.03
2023-05-22T07:06:50.231Z,1.08
2023-05-22T07:07:46.915Z,1.00
2023-05-22T07:08:46.940Z,1.02
2023-05-22T07:09:47.167Z,1.05
2023-05-22T07:10:47.403Z,1.13
2023-05-22T07:11:46.924Z,1.21
2023-05-22T07:12:47.270Z,1.25
2023-05-22T07:13:47.035Z,1.26
2023-05-22T07:14:47.011Z,1.30
2023-05-22T07:15:46.898Z,1.29
2023-05-22T07:16:46.907Z,1.33
2023-05-22T07:17:47.069Z,1.32
2023-05-22T07:18:47.298Z,1.39
2023-05-22T07:19:47.021Z,1.38
2023-05-22T07:20:46.959Z,1.40
2023-05-22T07:21:46.861Z,1.45
2023-05-22T07:22:46.829Z,1.45
2023-05-22T07:23:47.290Z,1.48
2023-05-22T07:24:46.857Z,1.51
2023-05-22T07:25:46.991Z,1.54
2023-05-22T07:26:46.840Z,1.56
2023-05-22T07:27:47.005Z,1.58
2023-05-22T07:28:48.269Z,1.61
2023-05-22T07:29:54.357Z,1.63
2023-05-22T07:30:46.920Z,1.63
2023-05-22T07:32:02.585Z,1.63
2023-05-22T07:32:46.941Z,1.63
2023-05-22T07:33:47.348Z,1.64
2023-05-22T07:34:46.965Z,1.66
2023-05-22T07:35:47.097Z,1.61
2023-05-22T07:36:54.273Z,1.64
2023-05-22T07:37:50.091Z,1.63
2023-05-22T07:41:56.073Z,1.64
2023-05-22T07:42:46.835Z,1.64
2023-05-22T07:44:19.087Z,1.68
2023-05-22T07:44:47.054Z,1.64
2023-05-22T07:45:46.969Z,1.69
2023-05-22T07:47:02.607Z,1.75
2023-05-22T07:47:47.299Z,1.64
2023-05-22T07:48:50.159Z,1.69
2023-05-22T07:49:47.293Z,1.64
2023-05-22T07:50:46.774Z,1.69
2023-05-22T07:51:49.989Z,1.77
2023-05-22T07:52:46.804Z,1.64
2023-05-22T07:53:46.755Z,1.69
2023-05-22T07:54:50.486Z,1.78
2023-05-22T07:55:54.415Z,1.26
2023-05-22T07:57:02.792Z,1.13
2023-05-22T07:57:46.729Z,0.73
2023-05-22T07:58:46.867Z,0.54
2023-05-22T07:59:46.708Z,0.60
2023-05-22T08:00:46.699Z,0.67
2023-05-22T08:01:46.700Z,0.48
2023-05-22T08:02:46.886Z,0.50
2023-05-22T08:03:47.461Z,0.36
2023-05-22T08:04:46.812Z,0.50
2023-05-22T08:05:46.943Z,0.59
2023-05-22T08:06:47.022Z,0.63
2023-05-22T08:07:46.668Z,0.63
2023-05-22T08:08:46.788Z,0.59
2023-05-22T08:09:46.645Z,0.57
2023-05-22T08:11:02.947Z,0.54
2023-05-22T08:11:47.616Z,0.54
2023-05-22T08:12:46.695Z,0.54
2023-05-22T08:13:46.813Z,0.55
2023-05-22T08:14:46.610Z,0.45
2023-05-22T08:15:46.593Z,0.49
2023-05-22T08:16:46.662Z,0.52
2023-05-22T08:17:46.629Z,0.53
2023-05-22T08:18:46.817Z,0.53
2023-05-22T08:19:46.678Z,0.53
2023-05-22T08:20:46.548Z,0.52
2023-05-22T08:21:46.540Z,0.51
2023-05-22T08:22:47.147Z,0.51
2023-05-22T08:23:46.797Z,0.51
2023-05-22T08:24:46.527Z,0.50
2023-05-22T08:25:46.550Z,0.50
2023-05-22T08:26:46.523Z,0.50
2023-05-22T08:27:46.540Z,0.58
2023-05-22T08:28:47.167Z,0.60
2023-05-22T08:29:46.571Z,0.59
2023-05-22T08:30:46.585Z,0.56
2023-05-22T08:31:46.675Z,0.54
2023-05-22T08:32:46.860Z,0.54
2023-05-22T08:33:46.694Z,0.56
2023-05-22T08:34:46.691Z,0.55
2023-05-22T08:35:46.728Z,0.53
2023-05-22T08:36:46.729Z,0.55
2023-05-22T08:37:46.787Z,0.57
2023-05-22T08:38:47.387Z,0.54
2023-05-22T08:39:46.937Z,0.52
2023-05-22T08:40:47.009Z,0.49
2023-05-22T08:41:46.856Z,0.37
2023-05-22T08:43:18.688Z,0.53
2023-05-22T08:43:47.279Z,0.53
2023-05-22T08:44:47.429Z,0.44
2023-05-22T08:45:46.991Z,0.36
2023-05-22T08:46:46.896Z,0.36
2023-05-22T08:47:47.313Z,0.34
2023-05-22T08:48:46.854Z,0.36
2023-05-22T08:49:46.849Z,0.43
2023-05-22T08:50:46.840Z,0.49
2023-05-22T08:51:46.838Z,0.53
2023-05-22T08:52:47.300Z,0.52
2023-05-22T08:53:47.057Z,0.51
2023-05-22T08:54:46.932Z,0.50
2023-05-22T08:55:47.053Z,0.54
2023-05-22T08:56:56.167Z,0.50
2023-05-22T08:57:47.307Z,0.50
2023-05-22T08:58:47.011Z,0.46
2023-05-22T08:59:46.775Z,0.43
2023-05-22T09:00:47.024Z,0.42
2023-05-22T09:01:46.816Z,0.43
2023-05-22T09:02:47.360Z,0.43
2023-05-22T09:03:46.879Z,0.49
2023-05-22T09:04:46.741Z,0.51
2023-05-22T09:05:46.733Z,0.53
2023-05-22T09:06:46.729Z,0.55
2023-05-22T09:07:46.810Z,0.61
2023-05-22T09:08:47.779Z,0.57
2023-05-22T09:09:46.811Z,0.53
2023-05-22T09:10:46.704Z,0.55
2023-05-22T09:11:46.813Z,0.52
2023-05-22T09:12:46.690Z,0.54
2023-05-22T09:13:46.696Z,0.61
2023-05-22T09:14:49.862Z,0.67
2023-05-22T09:15:46.678Z,0.60
2023-05-22T09:16:47.069Z,0.56
2023-05-22T09:17:46.663Z,0.60
2023-05-22T09:18:46.684Z,0.66
2023-05-22T09:19:46.652Z,0.67
2023-05-22T09:20:46.813Z,0.66
2023-05-22T09:21:46.827Z,0.68
2023-05-22T09:22:46.638Z,0.62
2023-05-22T09:23:46.634Z,0.59
2023-05-22T09:24:46.610Z,0.58
2023-05-22T09:25:46.990Z,0.60
2023-05-22T09:26:46.845Z,0.68
2023-05-22T09:27:46.598Z,0.70
2023-05-22T09:28:46.821Z,0.69
2023-05-22T09:29:47.038Z,0.73
2023-05-22T09:30:46.613Z,0.67
2023-05-22T09:31:46.834Z,0.84
2023-05-22T09:32:46.651Z,1.15
2023-05-22T09:33:46.827Z,1.07
2023-05-22T09:34:47.574Z,0.94
2023-05-22T09:35:46.844Z,1.08
2023-05-22T09:36:46.541Z,1.17
2023-05-22T09:37:46.537Z,0.97
2023-05-22T09:38:46.535Z,0.84
2023-05-22T09:39:46.524Z,0.83
2023-05-22T09:40:46.820Z,0.85
2023-05-22T09:41:46.520Z,0.81
2023-05-22T09:42:46.548Z,0.85
2023-05-22T09:43:46.834Z,0.85
2023-05-22T09:44:46.687Z,0.80
2023-05-22T09:45:47.330Z,0.77
2023-05-22T09:46:48.002Z,0.81
2023-05-22T09:47:47.148Z,1.01
2023-05-22T09:48:47.131Z,0.95
2023-05-22T09:49:47.037Z,0.97
2023-05-22T09:50:46.976Z,0.97
2023-05-22T09:51:48.674Z,0.94
2023-05-22T09:52:50.461Z,0.81
2023-05-22T09:53:47.329Z,0.65
2023-05-22T09:54:47.243Z,0.66
2023-05-22T09:55:47.244Z,0.74
2023-05-22T09:56:47.245Z,0.77
2023-05-22T09:57:47.334Z,0.81
2023-05-22T09:58:47.260Z,0.75
2023-05-22T09:59:47.225Z,0.75
2023-05-22T10:01:47.295Z,0.79
2023-05-22T10:02:47.253Z,0.81
2023-05-22T10:03:49.296Z,0.84
2023-05-22T10:04:47.351Z,0.80
2023-05-22T10:05:47.184Z,0.81
2023-05-22T10:06:48.174Z,0.87
2023-05-22T10:07:47.334Z,0.92
2023-05-22T10:08:47.165Z,0.96
2023-05-22T10:09:47.557Z,1.03
2023-05-22T10:10:47.153Z,0.95
2023-05-22T10:11:47.172Z,0.99
2023-05-22T10:12:47.336Z,0.88
2023-05-22T10:13:47.127Z,0.87
2023-05-22T10:14:47.342Z,0.85
2023-05-22T10:15:47.139Z,0.85
2023-05-22T10:16:47.110Z,0.91
2023-05-22T10:17:47.373Z,0.93
2023-05-22T10:18:47.145Z,0.90
2023-05-22T10:19:47.229Z,0.90
2023-05-22T10:20:47.285Z,0.87
2023-05-22T10:21:47.078Z,0.97
2023-05-22T10:22:47.089Z,0.91
2023-05-22T10:23:47.061Z,0.87
2023-05-22T10:24:47.341Z,0.92
2023-05-22T10:25:47.083Z,1.00
2023-05-22T10:26:47.104Z,1.01
2023-05-22T10:27:47.130Z,0.87
2023-05-22T10:28:47.562Z,1.10
2023-05-22T10:29:47.205Z,1.24
2023-05-22T10:30:47.264Z,1.32
2023-05-22T10:31:47.310Z,1.37
2023-05-22T10:32:47.896Z,1.43
2023-05-22T10:33:47.459Z,1.47
2023-05-22T10:34:47.368Z,1.51
2023-05-22T10:35:47.385Z,1.58
2023-05-22T10:36:48.264Z,1.59
2023-05-22T10:37:47.383Z,1.57
2023-05-22T10:38:47.380Z,1.59
2023-05-22T10:39:48.129Z,1.59
2023-05-22T10:40:47.635Z,1.64
2023-05-22T10:41:47.421Z,1.71
2023-05-22T10:42:47.411Z,1.71
2023-05-22T10:43:47.467Z,1.71
2023-05-22T10:44:47.513Z,1.56
2023-05-22T10:45:48.173Z,1.45
2023-05-22T10:46:47.627Z,1.32
2023-05-22T10:47:47.748Z,1.19
2023-05-22T10:48:48.154Z,1.17
2023-05-22T10:49:48.357Z,1.08
2023-05-22T10:50:49.119Z,1.01
2023-05-22T10:51:48.139Z,0.98
2023-05-22T10:52:48.265Z,0.71
2023-05-22T10:53:48.155Z,0.78
2023-05-22T10:54:48.144Z,0.81
2023-05-22T10:55:48.156Z,0.78
2023-05-22T10:56:48.139Z,0.76
2023-05-22T10:57:49.156Z,0.74
2023-05-22T10:58:48.187Z,0.67
2023-05-22T10:59:48.224Z,0.63
2023-05-22T11:00:48.256Z,0.60
2023-05-22T11:01:48.360Z,0.67
2023-05-22T11:02:48.409Z,0.65
2023-05-22T11:03:48.477Z,0.71
2023-05-22T11:04:48.405Z,0.68
2023-05-22T11:05:49.404Z,0.70
2023-05-22T11:06:48.464Z,0.63
2023-05-22T11:07:48.884Z,0.66
2023-05-22T11:08:48.631Z,0.63
2023-05-22T11:09:55.931Z,0.58
2023-05-22T11:10:49.356Z,0.44
2023-05-22T11:11:48.516Z,0.41
2023-05-22T11:12:48.863Z,0.39
2023-05-22T11:13:49.263Z,0.41
2023-05-22T11:14:48.896Z,0.41
2023-05-22T11:15:48.489Z,0.37
2023-05-22T11:16:48.558Z,0.48
2023-05-22T11:17:48.511Z,0.51
2023-05-22T11:18:48.598Z,0.50
2023-05-22T11:19:49.172Z,0.55
2023-05-22T11:20:51.644Z,0.51
2023-05-22T11:21:48.447Z,0.51
2023-05-22T11:22:48.882Z,0.53
2023-05-22T11:23:48.425Z,0.58
2023-05-22T11:24:50.056Z,0.67
2023-05-22T11:25:48.581Z,0.93
2023-05-22T11:26:48.859Z,0.84
2023-05-22T11:27:48.599Z,0.72
2023-05-22T11:28:48.585Z,0.69
2023-05-22T11:29:49.170Z,0.67
2023-05-22T11:30:48.630Z,0.66
2023-05-22T11:31:48.619Z,0.75
2023-05-22T11:32:48.654Z,0.88
2023-05-22T11:33:52.066Z,0.93
2023-05-22T11:34:48.600Z,0.94
2023-05-22T11:35:48.583Z,0.97
2023-05-22T11:36:48.572Z,1.07
2023-05-22T11:37:48.580Z,1.28
2023-05-22T11:38:48.876Z,1.66
2023-05-22T11:39:48.590Z,1.94
2023-05-22T11:40:48.783Z,2.09
2023-05-22T11:41:48.543Z,2.33
2023-05-22T11:42:48.603Z,2.47
2023-05-22T11:43:48.541Z,2.73
2023-05-22T11:44:48.520Z,2.99
2023-05-22T11:45:48.526Z,3.21
2023-05-22T11:46:48.571Z,3.46
2023-05-22T11:47:48.575Z,3.77
2023-05-22T11:48:48.902Z,4.07
2023-05-22T11:49:48.529Z,4.37
2023-05-22T11:50:48.812Z,4.63
2023-05-22T11:51:48.486Z,4.98
2023-05-22T11:52:48.477Z,5.20
2023-05-22T11:53:48.886Z,5.52
2023-05-22T11:54:48.528Z,5.85
2023-05-22T11:55:48.752Z,6.25
2023-05-22T11:56:48.582Z,6.70
2023-05-22T11:57:48.880Z,6.92
2023-05-22T11:58:48.446Z,7.30
2023-05-22T11:59:48.472Z,7.80
2023-05-22T12:00:48.493Z,8.06
2023-05-22T12:01:49.235Z,8.45
2023-05-22T12:02:49.780Z,8.83
2023-05-22T12:03:48.570Z,9.35
2023-05-22T12:04:48.512Z,7.68
2023-05-22T12:05:48.568Z,6.55
2023-05-22T12:06:48.762Z,5.14
2023-05-22T12:07:48.690Z,3.11
2023-05-22T12:08:49.182Z,2.77
2023-05-22T12:09:49.188Z,2.51
2023-05-22T12:10:49.216Z,2.19
2023-05-22T12:11:49.121Z,1.97
2023-05-22T12:12:49.480Z,2.30
2023-05-22T12:13:49.056Z,2.66
2023-05-22T12:14:49.120Z,2.82
2023-05-22T12:15:49.175Z,2.88
2023-05-22T12:16:49.243Z,2.89
2023-05-22T12:17:49.369Z,2.81
2023-05-22T12:18:49.453Z,2.68
2023-05-22T12:19:49.399Z,2.71
2023-05-22T12:20:49.482Z,2.80
2023-05-22T12:21:49.515Z,2.99
2023-05-22T12:22:49.574Z,2.38
2023-05-22T12:23:49.901Z,2.25
2023-05-22T12:24:49.681Z,2.34
2023-05-22T12:25:49.735Z,2.38
2023-05-22T12:26:49.784Z,2.50
2023-05-22T12:27:50.089Z,2.36
2023-05-22T12:28:50.510Z,2.27
2023-05-22T12:29:49.945Z,2.29
2023-05-22T12:30:50.395Z,2.41
2023-05-22T12:31:50.149Z,2.37
2023-05-22T12:32:50.440Z,2.57
2023-05-22T12:33:50.140Z,2.54
2023-05-22T12:34:50.898Z,2.54
2023-05-22T12:35:50.235Z,2.32
2023-05-22T12:36:50.270Z,2.22
2023-05-22T12:37:50.336Z,2.23
2023-05-22T12:38:50.359Z,1.92
2023-05-22T12:39:50.393Z,1.98
2023-05-22T12:40:50.429Z,2.09
2023-05-22T12:41:50.476Z,2.27
2023-05-22T12:42:50.519Z,2.45
2023-05-22T12:43:50.546Z,2.62
2023-05-22T12:44:50.708Z,2.82
2023-05-22T12:45:50.653Z,3.10
2023-05-22T12:46:50.675Z,3.34
2023-05-22T12:47:50.932Z,3.65
2023-05-22T12:48:50.737Z,3.93
2023-05-22T12:49:50.765Z,4.25
2023-05-22T12:50:50.809Z,4.58
2023-05-22T12:51:50.846Z,4.94
2023-05-22T12:52:50.885Z,5.25
2023-05-22T12:53:51.397Z,5.56
2023-05-22T12:54:50.989Z,6.03
2023-05-22T12:55:50.992Z,6.42
2023-05-22T12:56:51.030Z,6.89
2023-05-22T12:57:51.080Z,6.08
2023-05-22T12:58:51.410Z,6.13
2023-05-22T12:59:51.185Z,6.09
2023-05-22T13:00:51.354Z,5.34
2023-05-22T13:01:51.477Z,5.06
2023-05-22T13:02:51.446Z,5.04
2023-05-22T13:03:51.293Z,4.74
2023-05-22T13:04:51.357Z,4.53
2023-05-22T13:05:51.305Z,4.22
2023-05-22T13:06:51.401Z,4.22
2023-05-22T13:07:51.312Z,4.05
2023-05-22T13:08:51.322Z,3.86
2023-05-22T13:09:51.340Z,3.67
2023-05-22T13:10:51.358Z,3.56
2023-05-22T13:11:51.469Z,3.59
2023-05-22T13:12:51.608Z,3.64
2023-05-22T13:13:51.445Z,3.59
2023-05-22T13:14:51.469Z,3.54
2023-05-22T13:15:52.260Z,3.44
2023-05-22T13:16:51.644Z,3.47
2023-05-22T13:17:52.253Z,3.38
2023-05-22T13:18:52.660Z,3.36
2023-05-22T13:19:51.661Z,3.32
2023-05-22T13:20:51.685Z,3.33
2023-05-22T13:21:51.726Z,3.31
2023-05-22T13:22:51.796Z,3.18
2023-05-22T13:23:51.805Z,3.14
2023-05-22T13:24:52.222Z,3.15
2023-05-22T13:25:52.405Z,3.13
2023-05-22T13:26:52.257Z,3.08